Corinth, Vermont
Current Conditions -  °F | °C
As of 8:51 PM on Tuesday 21 Oct 2014 (Local Time) from KMPV Reporting Station
Light Rain Light Rain  
Wind Chill: 43°   Ceiling: 700
Heat Index: 45°   Visibility: 6mi
Dew Point: 45°   Wind: 5mph
Humidity: 100%   Direction: 340°NNW
Pressure: 30.08"   Gusts: NA
Location:  44.02°N, 72.3°W
Report Text: KMPV 220051Z AUTO 34004KT 6SM -RA BR BKN007 OVC010 07/07 A3008 RMK AO2 RAB01E11B30 CIG 002V008 SLP195 P0000 T00720072
Loading
Personal Weather Stations






























Interactive Weather Map
Tropical Storm Tracking
New forecast layout! Learn more

10-Day Weather Forecast

Advertisements
Track Severe Weather on mobile